TimeCDT,TemperatureF,Dew PointF,Humidity,Sea Level PressureIn,VisibilityMPH,Wind Direction,Wind SpeedMPH,Gust SpeedMPH,PrecipitationIn,Events,Conditions,WindDirDegrees,DateUTC
12:58 AM,52.9,45.7,77,30.32,10.0,North,4.6,-,N/A,,Overcast,10,2013-09-16 05:58:00
1:58 AM,51.8,44.1,75,30.34,10.0,ENE,5.8,-,N/A,,Overcast,70,2013-09-16 06:58:00
2:58 AM,49.8,43.5,79,30.35,10.0,NNE,6.9,-,N/A,,Overcast,20,2013-09-16 07:58:00
3:33 AM,46.4,41.0,81,30.34,10.0,NE,5.8,-,N/A,,Scattered Clouds,50,2013-09-16 08:33:00
3:58 AM,45.1,40.6,84,30.37,10.0,NE,4.6,-,N/A,,Clear,50,2013-09-16 08:58:00
4:58 AM,41.9,39.2,90,30.38,10.0,NE,3.5,-,N/A,,Clear,50,2013-09-16 09:58:00
5:58 AM,39.4,37.9,95,30.40,10.0,East,2.3,-,N/A,,Clear,90,2013-09-16 10:58:00
6:48 AM,33.8,33.8,100,30.39,2.5,Calm,Calm,-,N/A,,Clear,0,2013-09-16 11:48:00
6:58 AM,37.4,35.6,93,30.43,10.0,Calm,Calm,-,N/A,,Clear,0,2013-09-16 11:58:00
7:58 AM,41.0,39.2,93,30.42,10.0,Variable,1.2,-,N/A,,Clear,0,2013-09-16 12:58:00
8:58 AM,48.2,42.8,82,30.44,10.0,East,4.6,-,N/A,,Clear,80,2013-09-16 13:58:00
9:58 AM,53.6,41.0,62,30.45,10.0,ENE,8.1,-,N/A,,Partly Cloudy,60,2013-09-16 14:58:00
10:58 AM,55.4,41.0,58,30.44,10.0,East,6.9,-,N/A,,Partly Cloudy,100,2013-09-16 15:58:00
11:58 AM,59.0,39.2,48,30.43,10.0,Variable,4.6,-,N/A,,Clear,0,2013-09-16 16:58:00
12:58 PM,60.8,41.0,48,30.43,10.0,SSE,5.8,-,N/A,,Clear,160,2013-09-16 17:58:00
1:58 PM,62.6,39.2,42,30.41,10.0,SSE,4.6,-,N/A,,Clear,160,2013-09-16 18:58:00
2:58 PM,64.4,39.2,40,30.39,10.0,ESE,4.6,-,N/A,,Clear,120,2013-09-16 19:58:00
3:58 PM,64.8,37.9,37,30.37,10.0,SE,5.8,-,N/A,,Clear,140,2013-09-16 20:58:00
4:58 PM,64.4,41.0,42,30.36,10.0,ESE,8.1,-,N/A,,Clear,120,2013-09-16 21:58:00
5:58 PM,62.6,41.0,45,30.35,10.0,East,4.6,-,N/A,,Clear,100,2013-09-16 22:58:00
6:58 PM,55.4,44.6,67,30.34,10.0,East,3.5,-,N/A,,Clear,80,2013-09-16 23:58:00
7:58 PM,46.4,42.8,87,30.35,10.0,ESE,3.5,-,N/A,,Clear,110,2013-09-17 00:58:00
8:58 PM,42.8,41.0,93,30.36,10.0,East,3.5,-,N/A,,Clear,90,2013-09-17 01:58:00
9:58 PM,42.8,41.0,93,30.36,10.0,ESE,2.3,-,N/A,,Clear,120,2013-09-17 02:58:00
10:58 PM,41.0,39.2,93,30.37,10.0,SSE,3.5,-,N/A,,Clear,150,2013-09-17 03:58:00
11:58 PM,39.2,39.2,100,30.36,10.0,SE,4.6,-,N/A,,Clear,130,2013-09-17 04:58:00